Time;durP1;ratioP1;P1;durP2;ratioP2;P2;SDS_P1;SDS_P2;PMS_P1;PMS_P2;Temp;Humidity;BMP_temperature;BMP_pressure;BME280_temperature;BME280_humidity;BME280_pressure;Samples;Min_cycle;Max_cycle;Signal;HPM_P1;HPM_P2
2022/01/17 00:00:24;;;;;;;6.20;2.28;;;9.90;99.90;;;;;;5052023;28;20029;-74
2022/01/17 00:02:52;;;;;;;3.35;1.83;;;9.90;99.90;;;;;;5052154;28;20039;-73
2022/01/17 00:05:18;;;;;;;3.97;2.08;;;9.90;99.90;;;;;;5051903;28;20033;-74
2022/01/17 00:07:45;;;;;;;8.77;2.17;;;9.90;99.90;;;;;;5052245;28;20469;-73
2022/01/17 00:10:11;;;;;;;5.37;2.07;;;9.90;99.90;;;;;;5051880;28;20377;-74
2022/01/17 00:12:44;;;;;;;6.93;2.42;;;9.90;99.90;;;;;;5052061;28;20033;-74
2022/01/17 00:15:19;;;;;;;4.25;2.15;;;9.80;99.90;;;;;;5051878;28;20123;-74
2022/01/17 00:17:49;;;;;;;6.10;2.13;;;9.80;99.90;;;;;;5051868;28;20113;-74
2022/01/17 00:20:24;;;;;;;5.53;2.42;;;9.80;99.90;;;;;;5051733;28;20036;-74
2022/01/17 00:22:51;;;;;;;5.82;1.90;;;9.80;99.90;;;;;;5052002;28;20112;-74
2022/01/17 00:25:17;;;;;;;4.82;1.67;;;9.80;99.90;;;;;;5051879;28;20028;-73
2022/01/17 00:27:43;;;;;;;7.85;2.25;;;9.80;99.90;;;;;;5051797;28;20032;-74
2022/01/17 00:30:10;;;;;;;7.15;2.38;;;9.80;99.90;;;;;;5033465;28;20027;-73
2022/01/17 00:32:36;;;;;;;7.32;2.00;;;9.80;99.90;;;;;;5051411;28;20120;-73
2022/01/17 00:35:03;;;;;;;6.90;1.95;;;9.70;99.90;;;;;;5051476;28;20159;-74
2022/01/17 00:37:29;;;;;;;5.05;2.20;;;9.70;99.90;;;;;;5051698;28;20029;-74
2022/01/17 00:39:55;;;;;;;7.45;2.55;;;9.60;99.90;;;;;;5052051;28;20021;-74
2022/01/17 00:42:22;;;;;;;5.47;2.08;;;9.60;99.90;;;;;;5051483;28;20039;-74
2022/01/17 00:44:48;;;;;;;4.88;2.25;;;9.60;99.90;;;;;;5033550;28;20101;-73
2022/01/17 00:47:14;;;;;;;5.90;2.30;;;9.60;99.90;;;;;;5033587;28;20431;-73
2022/01/17 00:49:41;;;;;;;4.95;1.88;;;9.50;99.90;;;;;;5051595;28;20349;-74
2022/01/17 00:52:07;;;;;;;5.68;2.17;;;9.50;99.90;;;;;;5051354;28;20032;-74
2022/01/17 00:54:33;;;;;;;3.20;1.80;;;9.60;99.90;;;;;;5051934;28;20032;-74
2022/01/17 00:56:59;;;;;;;5.40;2.08;;;9.60;99.90;;;;;;5052825;28;20029;-73
2022/01/17 00:59:26;;;;;;;6.60;1.93;;;9.60;99.90;;;;;;5055517;28;20146;-73
2022/01/17 01:01:52;;;;;;;5.03;1.90;;;9.60;99.90;;;;;;5055090;28;20525;-74
2022/01/17 01:04:18;;;;;;;4.15;1.90;;;9.50;99.90;;;;;;5055454;28;20097;-73
2022/01/17 01:06:44;;;;;;;3.60;1.85;;;9.50;99.90;;;;;;5054765;28;20068;-74
2022/01/17 01:09:10;;;;;;;6.33;2.00;;;9.50;99.90;;;;;;5055267;28;20032;-74
2022/01/17 01:11:36;;;;;;;5.75;1.77;;;9.40;99.90;;;;;;5054738;28;20111;-74
2022/01/17 01:14:03;;;;;;;5.85;1.77;;;9.50;99.90;;;;;;5054559;28;20111;-74
2022/01/17 01:16:34;;;;;;;5.32;1.80;;;9.50;99.90;;;;;;5054822;28;20067;-73
2022/01/17 01:29:45;;;;;;;5.28;2.10;;;9.60;99.90;;;;;;5054519;28;20048;-74
2022/01/17 01:32:12;;;;;;;6.00;1.80;;;9.50;99.90;;;;;;5054312;28;20041;-73
2022/01/17 01:34:43;;;;;;;6.53;1.95;;;9.50;99.90;;;;;;5054175;28;20052;-73
2022/01/17 01:37:10;;;;;;;4.68;2.10;;;9.50;99.90;;;;;;5054276;28;20041;-75
2022/01/17 01:39:37;;;;;;;4.17;1.93;;;9.40;99.90;;;;;;5054237;28;20396;-73
2022/01/17 01:42:04;;;;;;;5.50;1.80;;;9.40;99.90;;;;;;5054156;28;20025;-73
2022/01/17 01:44:30;;;;;;;;;;;9.40;99.90;;;;;;5055149;28;20167;-73
2022/01/17 01:46:57;;;;;;;6.43;1.92;;;9.40;99.90;;;;;;5054029;28;19919;-73
2022/01/17 01:49:24;;;;;;;6.10;2.00;;;9.40;99.90;;;;;;5054306;28;20375;-73
2022/01/17 01:51:50;;;;;;;10.07;2.20;;;9.40;99.90;;;;;;5054090;28;20445;-74
2022/01/17 01:54:18;;;;;;;7.23;2.23;;;9.50;99.90;;;;;;5054166;28;20456;-74
2022/01/17 01:56:46;;;;;;;3.85;1.75;;;9.60;99.90;;;;;;5053963;28;20033;-74
2022/01/17 01:59:14;;;;;;;6.43;1.88;;;9.60;99.90;;;;;;5036351;28;20032;-74
2022/01/17 02:01:40;;;;;;;7.38;2.42;;;9.60;99.90;;;;;;5032368;28;20112;-74
2022/01/17 02:04:07;;;;;;;8.67;1.97;;;9.60;99.90;;;;;;5040059;28;20040;-74
2022/01/17 02:06:33;;;;;;;4.47;2.20;;;9.50;99.90;;;;;;5053695;28;20423;-73
2022/01/17 02:09:02;;;;;;;7.43;1.70;;;9.50;99.90;;;;;;5052709;28;20432;-74
2022/01/17 02:11:28;;;;;;;4.45;2.05;;;9.60;99.90;;;;;;5054310;28;20021;-73
2022/01/17 02:13:54;;;;;;;4.97;1.97;;;9.60;99.90;;;;;;5054129;28;20040;-73
2022/01/17 02:16:23;;;;;;;5.15;1.70;;;9.60;99.90;;;;;;5053830;28;20033;-74
2022/01/17 02:18:50;;;;;;;4.63;1.63;;;9.60;99.90;;;;;;5053505;28;20095;-74
2022/01/17 02:23:52;;;;;;;6.15;1.95;;;9.40;99.90;;;;;;5053462;28;19912;-73
2022/01/17 02:26:20;;;;;;;4.40;1.67;;;9.50;99.90;;;;;;5053418;28;20029;-74
2022/01/17 02:28:48;;;;;;;8.63;1.85;;;9.50;99.90;;;;;;5053653;28;20021;-73
2022/01/17 02:31:14;;;;;;;4.30;2.00;;;9.60;99.90;;;;;;5053246;28;20033;-72
2022/01/17 02:33:40;;;;;;;11.68;1.92;;;9.50;99.90;;;;;;5053305;28;20029;-74
2022/01/17 02:36:06;;;;;;;4.20;2.03;;;9.50;99.90;;;;;;5053359;28;20020;-74
2022/01/17 02:38:33;;;;;;;5.07;2.00;;;9.50;99.90;;;;;;5053286;28;20025;-74
2022/01/17 02:40:59;;;;;;;3.78;1.60;;;9.40;99.90;;;;;;5053426;28;20163;-74
2022/01/17 02:43:26;;;;;;;8.05;1.90;;;9.50;99.90;;;;;;5035203;28;20032;-73
2022/01/17 02:48:23;;;;;;;5.40;1.60;;;9.70;99.90;;;;;;5053383;28;20449;-74
2022/01/17 02:50:50;;;;;;;6.60;1.85;;;9.80;99.90;;;;;;5035275;28;20114;-73
2022/01/17 02:53:16;;;;;;;5.75;1.63;;;9.70;99.90;;;;;;5052748;28;20041;-73
2022/01/17 02:55:52;;;;;;;9.73;1.80;;;9.60;99.90;;;;;;5053210;28;20025;-74
2022/01/17 02:58:21;;;;;;;4.22;1.88;;;9.60;99.90;;;;;;5053158;28;20066;-74
2022/01/17 03:00:49;;;;;;;4.47;1.92;;;9.70;99.90;;;;;;5052820;28;20029;-74
2022/01/17 03:03:20;;;;;;;8.15;1.60;;;9.80;99.90;;;;;;5052900;28;20033;-73
2022/01/17 03:05:50;;;;;;;5.75;1.88;;;9.80;99.90;;;;;;5031142;28;20044;-73
2022/01/17 03:08:17;;;;;;;7.60;1.52;;;9.90;99.90;;;;;;5032970;28;20021;-73
2022/01/17 03:10:43;;;;;;;;;;;9.80;99.90;;;;;;5033571;28;20091;-74
2022/01/17 03:13:14;;;;;;;3.53;1.58;;;9.80;99.90;;;;;;5031080;28;19921;-74
2022/01/17 03:15:42;;;;;;;6.68;1.70;;;9.80;99.90;;;;;;5033034;28;20025;-74
2022/01/17 03:18:08;;;;;;;8.93;1.60;;;9.80;99.90;;;;;;5032956;28;20025;-74
2022/01/17 03:20:37;;;;;;;3.55;1.58;;;9.80;99.90;;;;;;5032654;28;20037;-72
2022/01/17 03:23:04;;;;;;;5.28;1.73;;;9.80;99.90;;;;;;5032309;28;20481;-74
2022/01/17 03:25:29;;;;;;;;;;;9.70;99.90;;;;;;5033234;28;20037;-74
2022/01/17 03:27:56;;;;;;;5.93;1.67;;;9.70;99.90;;;;;;5032582;28;19920;-74
2022/01/17 03:30:22;;;;;;;4.50;1.70;;;9.70;99.90;;;;;;5030847;28;20029;-74
2022/01/17 03:32:49;;;;;;;4.85;2.40;;;9.60;99.90;;;;;;5032099;28;20178;-74
2022/01/17 03:35:15;;;;;;;8.00;3.08;;;9.60;99.90;;;;;;5032049;28;20044;-73
2022/01/17 03:37:42;;;;;;;5.75;2.45;;;9.50;99.90;;;;;;5032124;28;20036;-74
2022/01/17 03:40:09;;;;;;;;;;;9.50;99.90;;;;;;5032406;28;20029;-74
2022/01/17 03:42:36;;;;;;;5.25;1.65;;;9.40;99.90;;;;;;5031803;28;19909;-73
2022/01/17 03:45:07;;;;;;;8.20;2.00;;;9.40;99.90;;;;;;5031802;28;20049;-74
2022/01/17 03:47:34;;;;;;;6.97;1.85;;;9.40;99.90;;;;;;5032487;28;20022;-74
2022/01/17 03:50:02;;;;;;;7.07;2.00;;;9.40;99.90;;;;;;5031943;28;20087;-74
2022/01/17 03:52:28;;;;;;;7.18;2.13;;;9.40;99.90;;;;;;5032052;28;20128;-74
2022/01/17 03:54:54;;;;;;;6.50;1.83;;;9.40;99.90;;;;;;5031672;28;20025;-75
2022/01/17 03:57:20;;;;;;;5.88;2.10;;;9.40;99.90;;;;;;5031462;28;20040;-74
2022/01/17 03:59:46;;;;;;;4.88;2.10;;;9.40;99.90;;;;;;5031954;28;20022;-73
2022/01/17 04:02:12;;;;;;;3.88;1.95;;;9.40;99.90;;;;;;5031844;28;20462;-74
2022/01/17 04:04:38;;;;;;;5.95;2.10;;;9.50;99.90;;;;;;5031800;28;20071;-74
2022/01/17 04:07:04;;;;;;;4.95;2.53;;;9.50;99.90;;;;;;5049054;28;20480;-73
2022/01/17 04:09:30;;;;;;;6.68;2.60;;;9.50;99.90;;;;;;5052329;28;20029;-73
2022/01/17 04:11:56;;;;;;;5.13;2.13;;;9.60;99.90;;;;;;5052222;28;20112;-74
2022/01/17 04:14:22;;;;;;;7.97;2.67;;;9.60;99.90;;;;;;5052148;28;20171;-74
2022/01/17 04:16:48;;;;;;;7.23;2.67;;;9.50;99.90;;;;;;5052196;28;20021;-74
2022/01/17 04:19:17;;;;;;;5.28;2.42;;;9.50;99.90;;;;;;5052183;28;20029;-74
2022/01/17 04:21:45;;;;;;;7.60;2.60;;;9.50;99.90;;;;;;5052084;28;20098;-74
2022/01/17 04:24:11;;;;;;;8.80;2.58;;;9.50;99.90;;;;;;5051761;28;20067;-74
2022/01/17 04:26:37;;;;;;;6.45;2.50;;;9.50;99.90;;;;;;5052293;28;20413;-73
2022/01/17 04:29:03;;;;;;;8.55;2.72;;;9.50;99.90;;;;;;5052361;28;20478;-74
2022/01/17 04:31:29;;;;;;;6.63;2.70;;;9.50;99.90;;;;;;5052019;28;20489;-73
2022/01/17 04:33:55;;;;;;;8.90;2.72;;;9.50;99.90;;;;;;5034296;28;20049;-73
2022/01/17 04:36:21;;;;;;;7.03;2.67;;;9.50;99.90;;;;;;5034367;28;20098;-73
2022/01/17 04:38:47;;;;;;;9.27;2.50;;;9.40;99.90;;;;;;5034284;28;20111;-73
2022/01/17 04:41:17;;;;;;;9.80;2.83;;;9.40;99.90;;;;;;5052565;28;20029;-74
2022/01/17 04:43:55;;;;;;;5.72;2.40;;;9.40;99.90;;;;;;5052043;28;20264;-74
2022/01/17 04:46:22;;;;;;;8.20;2.90;;;9.40;99.90;;;;;;5052356;28;20025;-74
2022/01/17 04:48:48;;;;;;;5.50;2.88;;;9.40;99.90;;;;;;5052262;28;20115;-74
2022/01/17 04:51:14;;;;;;;7.85;3.08;;;9.40;99.90;;;;;;5034010;28;20499;-74
2022/01/17 04:53:42;;;;;;;7.93;3.58;;;9.40;99.90;;;;;;5052393;28;20060;-74
2022/01/17 04:56:08;;;;;;;6.65;3.08;;;9.40;99.90;;;;;;5051872;28;20404;-74
2022/01/17 04:58:34;;;;;;;7.60;2.80;;;9.40;99.90;;;;;;5034393;28;20032;-74
2022/01/17 05:01:00;;;;;;;7.20;2.65;;;9.40;99.90;;;;;;5052369;28;20123;-74
2022/01/17 05:03:26;;;;;;;5.70;2.97;;;9.40;99.90;;;;;;5051879;28;20032;-73
2022/01/17 05:05:53;;;;;;;5.75;3.10;;;9.40;99.90;;;;;;5030369;28;20438;-74
2022/01/17 05:08:19;;;;;;;5.93;2.95;;;9.30;99.90;;;;;;5032374;28;20152;-74
2022/01/17 05:10:53;;;;;;;6.18;3.03;;;9.30;99.90;;;;;;5032461;28;20029;-73
2022/01/17 05:13:24;;;;;;;7.70;3.63;;;9.30;99.90;;;;;;5032542;28;20034;-74
2022/01/17 05:16:04;;;;;;;7.88;3.63;;;9.30;99.90;;;;;;5031814;28;20037;-74
2022/01/17 05:21:03;;;;;;;12.18;3.53;;;9.20;99.90;;;;;;5032413;28;20332;-74
2022/01/17 05:23:29;;;;;;;6.63;2.67;;;9.20;99.90;;;;;;5032869;28;20087;-73
2022/01/17 05:25:55;;;;;;;7.95;2.90;;;9.30;99.90;;;;;;5032556;28;20108;-73
2022/01/17 05:28:21;;;;;;;8.25;3.33;;;9.30;99.90;;;;;;5032787;28;20123;-74
2022/01/17 05:30:47;;;;;;;8.25;3.05;;;9.30;99.90;;;;;;5032061;28;20014;-74
2022/01/17 05:33:13;;;;;;;7.25;2.65;;;9.30;99.90;;;;;;5030781;28;20038;-74
2022/01/17 05:35:39;;;;;;;8.83;3.50;;;9.30;99.90;;;;;;5032376;28;20029;-73
2022/01/17 05:38:05;;;;;;;8.03;2.93;;;9.30;99.90;;;;;;5032098;28;20075;-73
2022/01/17 05:40:31;;;;;;;7.13;2.80;;;9.30;99.90;;;;;;5031976;28;20037;-74
2022/01/17 05:42:57;;;;;;;6.13;2.60;;;9.30;99.90;;;;;;5032255;28;20033;-73
2022/01/17 05:45:24;;;;;;;5.93;2.72;;;9.30;99.90;;;;;;5035291;28;20108;-74
2022/01/17 05:47:50;;;;;;;8.55;3.35;;;9.30;99.90;;;;;;5035894;28;20022;-74
2022/01/17 05:50:16;;;;;;;5.70;2.70;;;9.40;99.90;;;;;;5035298;28;20022;-73
2022/01/17 05:52:43;;;;;;;9.85;3.08;;;9.30;99.90;;;;;;5035643;28;20041;-73
2022/01/17 05:55:13;;;;;;;7.18;3.03;;;9.30;99.90;;;;;;5034625;28;20057;-74
2022/01/17 05:57:39;;;;;;;5.53;2.40;;;9.30;99.90;;;;;;5035864;28;20025;-73
2022/01/17 06:00:08;;;;;;;8.95;3.15;;;9.30;99.90;;;;;;5035742;28;20075;-73
2022/01/17 06:02:35;;;;;;;4.65;2.58;;;9.30;99.90;;;;;;5035689;28;20065;-74
2022/01/17 06:05:01;;;;;;;4.43;2.47;;;9.30;99.90;;;;;;5035073;28;20025;-74
2022/01/17 06:07:27;;;;;;;9.35;4.55;;;9.30;99.90;;;;;;5054737;28;20053;-73
2022/01/17 06:09:53;;;;;;;11.18;6.85;;;9.30;99.90;;;;;;5055389;28;20017;-73
2022/01/17 06:12:19;;;;;;;14.80;6.35;;;9.40;99.90;;;;;;5055121;28;20064;-74
2022/01/17 06:14:45;;;;;;;8.77;5.68;;;9.40;99.90;;;;;;5054796;28;20037;-72
2022/01/17 06:17:11;;;;;;;7.03;4.17;;;9.40;99.90;;;;;;5054995;28;20025;-74
2022/01/17 06:19:37;;;;;;;7.03;3.58;;;9.40;99.90;;;;;;5055006;28;20029;-73
2022/01/17 06:22:04;;;;;;;8.20;3.40;;;9.40;99.90;;;;;;5054900;28;20029;-74
2022/01/17 06:24:31;;;;;;;8.68;3.65;;;9.40;99.90;;;;;;5054724;28;20017;-74
2022/01/17 06:26:58;;;;;;;8.13;3.22;;;9.40;99.90;;;;;;5055099;28;20139;-74
2022/01/17 06:29:25;;;;;;;8.63;3.58;;;9.40;99.90;;;;;;5054858;28;20033;-76
2022/01/17 06:31:51;;;;;;;9.88;4.28;;;9.50;99.90;;;;;;5054337;28;20039;-73
2022/01/17 06:34:17;;;;;;;7.85;3.78;;;9.60;99.90;;;;;;5054906;28;20036;-73
2022/01/17 06:36:43;;;;;;;9.10;3.60;;;10.00;99.90;;;;;;5054648;28;20095;-72
2022/01/17 06:39:11;;;;;;;10.33;5.40;;;10.50;99.90;;;;;;5054761;28;20210;-72
2022/01/17 06:41:38;;;;;;;11.07;4.80;;;11.20;99.90;;;;;;5054330;28;20381;-72
2022/01/17 06:44:04;;;;;;;;;;;12.10;99.90;;;;;;5053733;28;20115;-70
2022/01/17 06:46:30;;;;;;;11.80;3.83;;;13.00;99.90;;;;;;5052662;28;20347;-70
2022/01/17 06:48:56;;;;;;;9.10;3.30;;;13.90;99.90;;;;;;5054270;28;20104;-68
2022/01/17 06:51:22;;;;;;;8.73;3.47;;;14.70;99.90;;;;;;5053944;28;20339;-72
2022/01/17 06:53:51;;;;;;;10.38;3.67;;;15.50;99.90;;;;;;5053735;28;20039;-71
2022/01/17 06:56:17;;;;;;;10.05;3.67;;;16.40;99.90;;;;;;5034660;28;20021;-72
2022/01/17 06:58:44;;;;;;;10.68;3.58;;;17.20;99.90;;;;;;5053115;28;20463;-68
2022/01/17 07:01:12;;;;;;;9.45;3.65;;;17.90;99.90;;;;;;5053161;28;20112;-72
2022/01/17 07:03:39;;;;;;;7.22;3.13;;;18.50;99.20;;;;;;5055172;28;20029;-71
2022/01/17 07:06:05;;;;;;;10.32;3.60;;;18.80;98.20;;;;;;5052930;28;20547;-71
2022/01/17 07:08:31;;;;;;;9.48;3.78;;;18.90;97.50;;;;;;5053438;28;20083;-72
2022/01/17 07:10:57;;;;;;;11.05;3.67;;;19.10;96.90;;;;;;5053047;28;20044;-73
2022/01/17 07:13:23;;;;;;;10.65;3.78;;;19.20;96.50;;;;;;5053185;28;20111;-72
2022/01/17 07:15:50;;;;;;;9.43;3.33;;;19.60;96.10;;;;;;5035244;28;20067;-74
2022/01/17 07:18:16;;;;;;;10.25;3.72;;;20.10;95.30;;;;;;5053044;28;20464;-74
2022/01/17 07:20:42;;;;;;;7.60;2.50;;;20.80;94.20;;;;;;5035338;28;20021;-75
2022/01/17 07:23:09;;;;;;;4.25;2.13;;;21.10;93.00;;;;;;5053620;28;20053;-74
2022/01/17 07:25:38;;;;;;;;;;;20.50;93.10;;;;;;5053592;28;20086;-73
2022/01/17 07:28:06;;;;;;;3.38;1.45;;;20.30;92.70;;;;;;5053306;28;20000;-75
2022/01/17 07:30:32;;;;;;;7.60;2.60;;;20.00;92.90;;;;;;5052916;28;20031;-75
2022/01/17 07:32:58;;;;;;;8.40;1.90;;;21.10;92.00;;;;;;5052862;28;20115;-75
2022/01/17 07:35:25;;;;;;;6.20;2.30;;;21.40;91.30;;;;;;5053186;28;20442;-75
2022/01/17 07:37:51;;;;;;;5.82;2.15;;;22.00;90.70;;;;;;5035037;28;20028;-75
2022/01/17 07:40:17;;;;;;;7.68;2.17;;;22.90;89.00;;;;;;5053310;28;20056;-75
2022/01/17 07:42:43;;;;;;;9.68;2.60;;;23.50;87.30;;;;;;5052988;28;20032;-76
2022/01/17 07:45:12;;;;;;;13.57;2.72;;;23.90;85.20;;;;;;5052910;28;20024;-75
2022/01/17 07:50:07;;;;;;;6.82;2.53;;;24.60;81.50;;;;;;5052687;28;20104;-77
2022/01/17 07:52:34;;;;;;;8.93;2.78;;;24.60;81.40;;;;;;5052734;28;20043;-77
2022/01/17 07:54:59;;;;;;;;;;;24.20;81.20;;;;;;5052948;28;20074;-72
2022/01/17 07:57:26;;;;;;;11.75;2.75;;;23.40;81.70;;;;;;5052366;28;20366;-72
2022/01/17 07:59:52;;;;;;;6.13;2.60;;;22.40;84.30;;;;;;5052888;28;20029;-72
2022/01/17 08:02:18;;;;;;;9.27;2.60;;;21.60;85.90;;;;;;5052721;28;20492;-73
2022/01/17 08:04:44;;;;;;;7.85;2.53;;;20.50;88.20;;;;;;5052492;28;20032;-73
2022/01/17 08:07:10;;;;;;;6.57;2.20;;;19.80;89.50;;;;;;5051856;28;20098;-73
2022/01/17 08:09:36;;;;;;;15.70;6.28;;;19.30;90.60;;;;;;5052350;28;20036;-72
2022/01/17 08:12:05;;;;;;;11.68;4.13;;;18.60;90.90;;;;;;5052419;28;20477;-72
2022/01/17 08:14:32;;;;;;;9.30;3.88;;;17.90;92.20;;;;;;5052579;28;20033;-73
2022/01/17 08:16:58;;;;;;;9.52;3.30;;;17.30;93.50;;;;;;5052032;28;20017;-73
2022/01/17 08:19:25;;;;;;;8.63;3.75;;;16.70;94.10;;;;;;5052625;28;20025;-73
2022/01/17 08:21:52;;;;;;;10.18;3.92;;;16.20;95.30;;;;;;5052060;28;20032;-74
2022/01/17 08:24:22;;;;;;;12.98;4.25;;;15.60;96.70;;;;;;5051673;28;20043;-73
2022/01/17 08:26:50;;;;;;;8.15;3.70;;;15.30;98.20;;;;;;5052448;28;20392;-73
2022/01/17 08:29:17;;;;;;;7.07;3.83;;;15.20;98.10;;;;;;5052187;28;20028;-73
2022/01/17 08:31:47;;;;;;;;;;;15.20;98.40;;;;;;5052295;28;20025;-73
2022/01/17 08:34:14;;;;;;;8.15;3.83;;;15.00;98.40;;;;;;5051853;28;19936;-74
2022/01/17 08:36:40;;;;;;;7.88;3.30;;;15.00;98.20;;;;;;5052454;28;20159;-73
2022/01/17 08:39:07;;;;;;;6.65;2.90;;;15.20;98.60;;;;;;5052045;28;20057;-73
2022/01/17 08:41:33;;;;;;;;;;;15.00;98.20;;;;;;5034629;28;20025;-73
2022/01/17 08:43:59;;;;;;;7.82;2.38;;;14.80;98.50;;;;;;5051963;28;19908;-73
2022/01/17 08:46:25;;;;;;;8.33;2.73;;;14.70;98.60;;;;;;5034220;28;20507;-72
2022/01/17 08:48:53;;;;;;;8.70;3.60;;;14.80;98.50;;;;;;5051910;28;20025;-74
2022/01/17 08:51:19;;;;;;;9.98;2.60;;;15.20;98.90;;;;;;5051372;28;20021;-73
2022/01/17 08:53:46;;;;;;;8.20;2.80;;;15.50;99.60;;;;;;5051077;28;20497;-74
2022/01/17 08:56:12;;;;;;;8.73;2.80;;;15.60;99.80;;;;;;5051088;28;20021;-73
2022/01/17 08:58:38;;;;;;;9.13;2.40;;;15.90;99.00;;;;;;5051128;28;20056;-73
2022/01/17 09:01:04;;;;;;;5.38;2.28;;;16.10;99.10;;;;;;5051072;28;20028;-74
2022/01/17 09:03:31;;;;;;;6.00;2.33;;;15.90;98.80;;;;;;5050854;28;20215;-73
2022/01/17 09:05:57;;;;;;;8.05;2.15;;;15.80;97.90;;;;;;5050556;28;20049;-73
2022/01/17 09:08:23;;;;;;;8.60;2.75;;;15.90;99.90;;;;;;5032485;28;20369;-73
2022/01/17 09:10:51;;;;;;;13.80;2.58;;;16.10;98.40;;;;;;5051318;28;20084;-73
2022/01/17 09:13:18;;;;;;;8.80;3.85;;;15.90;97.50;;;;;;5050630;28;20133;-74
2022/01/17 09:15:45;;;;;;;7.47;3.20;;;16.10;97.00;;;;;;5050815;28;20116;-73
2022/01/17 09:18:14;;;;;;;5.30;2.97;;;16.30;96.80;;;;;;5053492;28;20025;-74
2022/01/17 09:20:40;;;;;;;8.10;3.50;;;16.40;97.30;;;;;;5037742;28;20163;-73
2022/01/17 09:23:07;;;;;;;14.30;3.35;;;16.40;97.40;;;;;;5055701;28;20029;-73
2022/01/17 09:25:34;;;;;;;5.93;2.72;;;16.60;97.30;;;;;;5055797;28;20025;-75
2022/01/17 09:28:00;;;;;;;5.40;2.00;;;16.60;96.90;;;;;;5055552;28;20033;-74
2022/01/17 09:30:26;;;;;;;6.28;2.20;;;16.60;97.40;;;;;;5055377;28;20039;-74
2022/01/17 09:32:52;;;;;;;5.28;1.92;;;16.70;96.90;;;;;;5055365;28;20029;-74
2022/01/17 09:35:19;;;;;;;5.07;1.80;;;16.20;97.00;;;;;;5055729;28;20083;-73
2022/01/17 09:37:45;;;;;;;6.63;1.67;;;16.00;97.00;;;;;;5056063;28;20314;-74
2022/01/17 09:40:11;;;;;;;6.15;2.00;;;16.10;97.30;;;;;;5055416;28;20025;-74
2022/01/17 09:42:38;;;;;;;5.97;1.83;;;16.30;97.50;;;;;;5055765;28;20021;-74
2022/01/17 09:45:08;;;;;;;5.22;1.80;;;16.30;97.50;;;;;;5054962;28;20083;-74
2022/01/17 09:47:36;;;;;;;12.85;6.50;;;16.20;97.00;;;;;;5055789;28;20017;-75
2022/01/17 09:50:06;;;;;;;8.68;1.65;;;16.30;96.90;;;;;;5054247;28;20055;-75
2022/01/17 09:52:34;;;;;;;6.10;1.73;;;16.10;98.00;;;;;;5054610;28;20033;-74
2022/01/17 09:55:23;;;;;;;4.47;1.58;;;16.20;97.00;;;;;;5054822;28;20408;-74
2022/01/17 09:58:03;;;;;;;5.53;1.40;;;16.40;97.20;;;;;;5054492;28;20021;-74
2022/01/17 10:00:32;;;;;;;7.32;1.60;;;16.60;96.90;;;;;;5054219;28;20056;-74
2022/01/17 10:03:05;;;;;;;6.88;1.60;;;16.50;96.40;;;;;;5054105;28;20029;-74
2022/01/17 10:05:33;;;;;;;8.75;1.52;;;16.60;96.70;;;;;;5054058;28;20353;-74
2022/01/17 10:08:01;;;;;;;8.02;1.88;;;16.40;96.10;;;;;;5035946;28;20060;-74
2022/01/17 10:10:36;;;;;;;22.50;10.05;;;16.30;99.30;;;;;;5035923;28;20465;-74
2022/01/17 10:13:32;;;;;;;4.70;1.63;;;16.60;98.30;;;;;;5053825;28;20071;-73
2022/01/17 10:16:08;;;;;;;7.65;1.33;;;16.70;99.30;;;;;;5052350;28;20029;-74
2022/01/17 10:18:37;;;;;;;4.03;1.50;;;16.40;98.50;;;;;;5054598;28;20108;-74
2022/01/17 10:21:13;;;;;;;5.18;1.30;;;16.50;96.40;;;;;;5053695;28;20021;-74
2022/01/17 10:37:22;;;;;;;4.90;1.58;;;16.70;96.50;;;;;;5053499;28;20056;-73
2022/01/17 10:39:53;;;;;;;5.05;1.67;;;16.50;96.50;;;;;;5053278;28;20029;-74
2022/01/17 10:42:27;;;;;;;13.93;1.75;;;16.20;96.50;;;;;;5052845;28;20136;-73
2022/01/17 10:44:54;;;;;;;5.00;1.60;;;16.40;97.00;;;;;;5052092;28;20412;-74
2022/01/17 10:47:27;;;;;;;;;;;16.60;97.00;;;;;;5052623;28;20056;-74
2022/01/17 10:49:56;;;;;;;6.07;1.60;;;16.70;96.50;;;;;;5053235;28;20003;-74
2022/01/17 10:52:43;;;;;;;7.03;2.05;;;16.80;97.60;;;;;;5053025;28;20037;-74
2022/01/17 10:55:21;;;;;;;3.97;1.65;;;16.90;95.90;;;;;;5053200;28;20416;-74
2022/01/17 10:57:50;;;;;;;4.00;1.50;;;17.00;96.40;;;;;;5051213;28;20029;-75
2022/01/17 11:00:19;;;;;;;5.28;1.48;;;17.20;97.60;;;;;;5053208;28;20033;-75
2022/01/17 11:02:52;;;;;;;4.82;1.65;;;16.60;96.30;;;;;;5053129;28;20054;-75
2022/01/17 11:05:21;;;;;;;4.93;1.42;;;16.80;98.60;;;;;;5052544;28;20028;-75
2022/01/17 11:07:53;;;;;;;3.55;1.70;;;16.70;97.00;;;;;;5052781;28;20141;-75
2022/01/17 11:10:28;;;;;;;6.88;1.65;;;16.50;96.20;;;;;;5052664;28;20025;-74
2022/01/17 11:12:57;;;;;;;3.63;1.30;;;16.60;96.70;;;;;;5052594;28;20478;-75
2022/01/17 11:15:24;;;;;;;4.20;1.52;;;16.50;96.20;;;;;;5052674;28;20017;-75
2022/01/17 11:17:54;;;;;;;3.75;1.63;;;16.50;96.20;;;;;;5052862;28;20473;-75
2022/01/17 11:20:23;;;;;;;13.38;1.95;;;16.70;96.80;;;;;;5052783;28;20079;-75
2022/01/17 11:22:51;;;;;;;5.65;1.67;;;16.90;96.00;;;;;;5053168;28;20522;-75
2022/01/17 11:25:21;;;;;;;4.60;2.00;;;17.10;96.20;;;;;;5052551;28;20067;-76
2022/01/17 11:27:48;;;;;;;8.18;1.92;;;17.10;96.70;;;;;;5052632;28;20103;-76
2022/01/17 11:30:16;;;;;;;6.15;1.65;;;16.90;97.40;;;;;;5052936;28;20054;-76
2022/01/17 11:32:47;;;;;;;3.53;1.55;;;16.70;99.80;;;;;;5052554;28;20078;-75
2022/01/17 11:35:16;;;;;;;4.95;1.50;;;16.80;96.60;;;;;;5052611;28;20025;-76
2022/01/17 11:37:46;;;;;;;4.07;1.58;;;17.10;96.40;;;;;;5052540;28;20162;-76
2022/01/17 11:40:14;;;;;;;4.65;2.20;;;17.20;95.90;;;;;;5034674;28;20029;-75
2022/01/17 11:42:44;;;;;;;4.22;1.80;;;17.10;95.90;;;;;;5033400;28;20059;-75
2022/01/17 11:45:22;;;;;;;10.20;2.33;;;17.20;96.90;;;;;;5052341;28;20120;-75
2022/01/17 11:47:56;;;;;;;13.02;2.30;;;17.20;95.50;;;;;;5052670;28;20107;-76
2022/01/17 11:50:41;;;;;;;8.15;2.65;;;17.40;95.90;;;;;;5052267;28;20119;-75
2022/01/17 11:53:07;;;;;;;9.43;2.50;;;17.40;96.20;;;;;;5034742;28;20064;-75
2022/01/17 11:55:42;;;;;;;9.60;2.70;;;17.40;95.30;;;;;;5052955;28;20017;-75
2022/01/17 11:58:29;;;;;;;12.98;3.10;;;17.00;96.00;;;;;;5034679;28;20335;-75
2022/01/17 12:01:01;;;;;;;6.18;1.80;;;17.20;96.10;;;;;;5052293;28;20212;-76
2022/01/17 12:03:31;;;;;;;7.50;1.90;;;17.30;95.50;;;;;;5052396;28;20132;-75
2022/01/17 12:06:04;;;;;;;13.10;4.13;;;17.00;95.80;;;;;;5052348;28;20124;-74
2022/01/17 12:08:31;;;;;;;4.45;1.73;;;16.80;96.20;;;;;;5052295;28;20056;-75
2022/01/17 12:10:58;;;;;;;;;;;16.60;96.80;;;;;;5052268;28;20021;-74
2022/01/17 12:13:35;;;;;;;4.07;1.90;;;16.60;96.40;;;;;;5051982;28;20424;-76
2022/01/17 12:16:39;;;;;;;5.60;1.70;;;16.40;96.80;;;;;;5052504;28;20154;-76
2022/01/17 12:19:08;;;;;;;4.97;1.92;;;16.60;97.30;;;;;;5033820;28;20075;-75
2022/01/17 12:21:36;;;;;;;8.85;2.10;;;17.00;96.80;;;;;;5052468;28;20358;-75
2022/01/17 12:24:17;;;;;;;9.27;2.40;;;17.20;96.40;;;;;;5052175;28;20032;-75
2022/01/17 12:26:53;;;;;;;9.10;2.03;;;17.30;97.40;;;;;;5053039;28;20053;-76
2022/01/17 12:29:35;;;;;;;12.13;3.38;;;17.00;96.80;;;;;;5053437;28;20095;-74
2022/01/17 12:32:01;;;;;;;7.13;2.70;;;17.30;97.20;;;;;;5034104;28;20037;-74
2022/01/17 12:34:27;;;;;;;12.02;2.67;;;17.30;96.70;;;;;;5051809;28;20112;-74
2022/01/17 12:36:58;;;;;;;5.57;2.25;;;17.40;99.40;;;;;;5051868;28;20045;-74
2022/01/17 12:39:27;;;;;;;6.85;2.55;;;17.60;97.30;;;;;;5051848;28;20107;-74
2022/01/17 12:42:04;;;;;;;15.93;4.97;;;17.60;96.60;;;;;;5034078;28;20028;-74
2022/01/17 12:44:32;;;;;;;15.77;5.20;;;17.60;97.20;;;;;;5052629;28;20025;-75
2022/01/17 12:47:03;;;;;;;11.25;3.60;;;17.60;97.00;;;;;;5052169;28;20033;-73
2022/01/17 12:49:33;;;;;;;7.53;2.20;;;17.60;96.90;;;;;;5052906;28;20032;-74
2022/01/17 12:52:00;;;;;;;10.88;3.05;;;17.20;97.40;;;;;;5052323;28;20075;-73
2022/01/17 12:54:29;;;;;;;8.88;2.85;;;17.20;97.80;;;;;;5055915;28;20477;-74
2022/01/17 12:56:57;;;;;;;8.10;2.85;;;17.20;98.00;;;;;;5056445;28;20021;-74
2022/01/17 12:59:25;;;;;;;9.02;3.22;;;17.30;98.10;;;;;;5056882;28;20021;-75
2022/01/17 13:01:58;;;;;;;5.60;2.65;;;17.40;97.90;;;;;;5039085;28;20033;-74
2022/01/17 13:04:24;;;;;;;7.88;2.72;;;17.50;97.60;;;;;;5056137;28;20036;-74
2022/01/17 13:06:53;;;;;;;5.03;2.20;;;17.60;97.10;;;;;;5056160;28;20060;-74
2022/01/17 13:09:24;;;;;;;8.77;2.45;;;17.30;97.10;;;;;;5056751;28;20017;-75
2022/01/17 13:11:53;;;;;;;9.38;2.10;;;17.30;97.40;;;;;;5056678;28;20032;-75
2022/01/17 13:14:22;;;;;;;9.23;2.40;;;17.30;97.50;;;;;;5056125;28;20087;-74
2022/01/17 13:16:49;;;;;;;6.68;2.15;;;17.30;97.70;;;;;;5056157;28;20377;-75
2022/01/17 13:19:18;;;;;;;7.60;2.10;;;17.30;97.90;;;;;;5056136;28;20025;-73
2022/01/17 13:21:46;;;;;;;7.97;2.30;;;17.30;97.80;;;;;;5056051;28;20052;-74
2022/01/17 13:24:31;;;;;;;10.40;2.65;;;17.30;97.90;;;;;;5055928;28;20037;-75
2022/01/17 13:27:12;;;;;;;10.93;2.30;;;17.00;98.30;;;;;;5056316;28;20025;-75
2022/01/17 13:29:44;;;;;;;12.93;2.83;;;17.10;98.40;;;;;;5056607;28;20024;-75
2022/01/17 13:32:12;;;;;;;5.57;1.95;;;17.10;98.10;;;;;;5056547;28;20032;-75